createdAt,value
2023-03-12T00:02:38.395Z,12.00
2023-03-12T00:07:42.522Z,13.25
2023-03-12T00:12:45.284Z,14.50
2023-03-12T00:17:48.504Z,14.50
2023-03-12T00:22:52.609Z,12.25
2023-03-12T00:27:55.349Z,10.50
2023-03-12T00:32:58.124Z,13.50
2023-03-12T00:38:02.178Z,13.25
2023-03-12T00:43:04.962Z,10.75
2023-03-12T00:48:08.041Z,12.50
2023-03-12T00:53:12.199Z,12.00
2023-03-12T00:58:14.946Z,12.00
2023-03-12T01:03:17.912Z,12.00
2023-03-12T01:08:23.045Z,11.50
2023-03-12T01:13:26.151Z,11.25
2023-03-12T01:18:28.861Z,10.75
2023-03-12T01:23:33.278Z,12.00
2023-03-12T01:28:36.018Z,12.00
2023-03-12T01:33:38.862Z,10.25
2023-03-12T01:38:42.994Z,11.75
2023-03-12T01:43:46.257Z,9.50
2023-03-12T01:48:52.562Z,12.25
2023-03-12T01:54:00.368Z,10.00
2023-03-12T01:59:11.174Z,8.75
2023-03-12T02:04:17.238Z,9.50
2023-03-12T02:09:23.124Z,8.75
2023-03-12T02:14:27.368Z,10.00
2023-03-12T02:19:39.309Z,9.00
2023-03-12T02:24:49.744Z,10.00
2023-03-12T02:29:53.843Z,12.50
2023-03-12T02:34:58.027Z,8.50
2023-03-12T02:40:08.638Z,11.75
2023-03-12T02:45:12.944Z,9.00
2023-03-12T02:50:16.207Z,8.50
2023-03-12T02:55:19.159Z,8.50
2023-03-12T03:00:23.631Z,8.00
2023-03-12T03:05:28.728Z,10.75
2023-03-12T03:10:31.779Z,9.75
2023-03-12T03:15:36.223Z,6.50
2023-03-12T03:20:39.394Z,10.25
2023-03-12T03:25:42.177Z,9.25
2023-03-12T03:30:46.773Z,6.75
2023-03-12T03:35:50.631Z,8.75
2023-03-12T03:40:54.094Z,9.00
2023-03-12T03:46:03.799Z,7.50
2023-03-12T03:51:11.957Z,6.75
2023-03-12T03:56:18.899Z,7.75
2023-03-12T04:01:25.970Z,6.00
2023-03-12T04:06:29.829Z,7.25
2023-03-12T04:11:33.180Z,7.50
2023-03-12T04:16:38.879Z,7.75
2023-03-12T04:21:41.742Z,7.00
2023-03-12T04:26:45.154Z,6.25
2023-03-12T04:31:50.353Z,7.00
2023-03-12T04:36:53.229Z,5.50
2023-03-12T04:41:57.842Z,7.00
2023-03-12T04:47:04.060Z,7.00
2023-03-12T04:52:07.627Z,8.00
2023-03-12T04:57:10.896Z,7.00
2023-03-12T05:02:15.041Z,7.00
2023-03-12T05:07:19.706Z,7.75
2023-03-12T05:12:22.588Z,8.00
2023-03-12T05:17:26.868Z,8.25
2023-03-12T05:22:29.728Z,7.50
2023-03-12T05:27:33.252Z,6.00
2023-03-12T05:32:37.464Z,6.00
2023-03-12T05:37:42.853Z,6.50
2023-03-12T05:42:46.793Z,6.75
2023-03-12T05:47:51.219Z,5.25
2023-03-12T05:52:54.224Z,4.25
2023-03-12T05:57:57.007Z,4.00
2023-03-12T06:03:01.280Z,5.00
2023-03-12T06:08:05.462Z,5.00
2023-03-12T06:13:08.775Z,4.25
2023-03-12T06:18:13.010Z,6.00
2023-03-12T06:23:15.782Z,6.75
2023-03-12T06:28:18.536Z,4.75
2023-03-12T06:33:22.603Z,4.00
2023-03-12T06:38:25.631Z,5.00
2023-03-12T06:43:30.260Z,4.25
2023-03-12T06:48:36.738Z,3.75
2023-03-12T06:53:42.200Z,2.75
2023-03-12T06:58:45.803Z,6.50
2023-03-12T07:03:49.940Z,3.75
2023-03-12T07:08:53.424Z,4.50
2023-03-12T07:13:57.242Z,4.75
2023-03-12T07:19:01.555Z,4.25
2023-03-12T07:24:06.939Z,5.00
2023-03-12T07:29:09.733Z,5.00
2023-03-12T07:34:13.917Z,3.50
2023-03-12T07:39:16.733Z,5.00
2023-03-12T07:44:19.468Z,5.00
2023-03-12T07:49:23.640Z,4.75
2023-03-12T07:54:30.564Z,3.00
2023-03-12T07:59:33.885Z,3.25
2023-03-12T08:04:38.083Z,3.25
2023-03-12T08:09:40.995Z,5.50
2023-03-12T08:14:44.122Z,5.50
2023-03-12T08:19:48.573Z,4.00
2023-03-12T08:24:51.266Z,7.50
2023-03-12T08:29:54.001Z,3.25
2023-03-12T08:34:58.638Z,5.00
2023-03-12T08:40:01.429Z,3.50
2023-03-12T08:45:04.504Z,2.50
2023-03-12T08:50:09.976Z,3.50
2023-03-12T08:55:13.088Z,1.75
2023-03-12T09:00:18.142Z,2.75
2023-03-12T09:05:22.425Z,2.00
2023-03-12T09:10:25.712Z,2.00
2023-03-12T09:15:28.757Z,2.75
2023-03-12T09:20:32.878Z,2.25
2023-03-12T09:25:35.622Z,4.00
2023-03-12T09:30:39.049Z,3.00
2023-03-12T09:35:43.858Z,2.00
2023-03-12T09:40:48.463Z,2.50
2023-03-12T09:45:52.958Z,2.00
2023-03-12T09:50:57.540Z,2.00
2023-03-12T09:56:03.582Z,2.00
2023-03-12T10:01:19.338Z,2.50
2023-03-12T10:06:25.820Z,2.00
2023-03-12T10:11:39.116Z,1.00
2023-03-12T10:16:55.363Z,1.50
2023-03-12T10:22:08.041Z,2.00
2023-03-12T10:27:14.700Z,2.00
2023-03-12T10:32:21.995Z,2.00
2023-03-12T10:37:30.407Z,2.00
2023-03-12T10:42:34.235Z,1.00
2023-03-12T10:47:38.592Z,3.25
2023-03-12T10:52:43.406Z,2.00
2023-03-12T10:57:46.138Z,1.50
2023-03-12T11:02:58.671Z,1.50
2023-03-12T11:08:04.369Z,3.00
2023-03-12T11:13:23.842Z,3.50
2023-03-12T11:18:32.133Z,3.50
2023-03-12T11:23:37.617Z,2.50
2023-03-12T11:28:44.107Z,3.00
2023-03-12T11:33:46.798Z,5.00
2023-03-12T11:38:58.733Z,4.50
2023-03-12T11:44:20.616Z,10.00
2023-03-12T11:49:37.838Z,7.00
2023-03-12T11:54:58.756Z,6.25
2023-03-12T12:00:13.088Z,8.50
2023-03-12T12:05:23.381Z,6.00
2023-03-12T12:10:32.677Z,10.00
2023-03-12T12:15:44.225Z,6.00
2023-03-12T12:20:51.550Z,6.50
2023-03-12T12:26:05.670Z,5.00
2023-03-12T12:31:31.002Z,5.75
2023-03-12T12:36:36.045Z,5.50
2023-03-12T12:41:48.439Z,5.00
2023-03-12T12:46:58.628Z,3.25
2023-03-12T12:52:05.885Z,4.00
2023-03-12T12:57:16.708Z,3.00
2023-03-12T13:02:23.159Z,3.50
2023-03-12T13:07:34.901Z,3.00
2023-03-12T13:12:48.589Z,3.50
2023-03-12T13:18:23.759Z,5.00
2023-03-12T13:23:37.714Z,3.00
2023-03-12T13:29:14.048Z,4.00
2023-03-12T13:34:53.495Z,3.00
2023-03-12T13:39:56.456Z,2.25
2023-03-12T13:45:23.104Z,3.00
2023-03-12T13:50:26.640Z,2.00
2023-03-12T13:55:31.570Z,4.00
2023-03-12T14:00:42.404Z,9.75
2023-03-12T14:05:52.941Z,6.00
2023-03-12T14:11:13.844Z,7.25
2023-03-12T14:16:27.061Z,6.25
2023-03-12T14:21:36.988Z,6.00
2023-03-12T14:26:41.296Z,6.00
2023-03-12T14:31:46.918Z,6.50
2023-03-12T14:36:58.766Z,6.00
2023-03-12T14:42:04.893Z,4.50
2023-03-12T14:47:11.440Z,6.25
2023-03-12T14:52:15.175Z,4.75
2023-03-12T14:57:24.520Z,4.50
2023-03-12T15:02:31.123Z,5.25
2023-03-12T15:07:37.307Z,4.00
2023-03-12T15:12:40.127Z,3.75
2023-03-12T15:17:44.505Z,3.00
2023-03-12T15:22:47.586Z,4.25
2023-03-12T15:28:00.886Z,4.00
2023-03-12T15:33:13.977Z,5.00
2023-03-12T15:38:18.361Z,3.00
2023-03-12T15:43:22.761Z,4.50
2023-03-12T15:48:30.737Z,3.00
2023-03-12T15:53:35.306Z,3.25
2023-03-12T15:58:39.928Z,3.25
2023-03-12T16:03:46.178Z,3.25
2023-03-12T16:08:51.928Z,3.50
2023-03-12T16:14:02.857Z,3.75
2023-03-12T16:19:13.004Z,3.50
2023-03-12T16:24:16.763Z,2.00
2023-03-12T16:29:21.378Z,4.50
2023-03-12T16:34:26.646Z,3.00
2023-03-12T16:39:32.954Z,3.00
2023-03-12T16:44:36.108Z,2.25
2023-03-12T16:49:40.912Z,3.50
2023-03-12T16:54:43.648Z,2.75
2023-03-12T16:59:46.445Z,3.00
2023-03-12T17:04:51.058Z,3.75
2023-03-12T17:09:53.947Z,3.00
2023-03-12T17:14:57.407Z,2.50
2023-03-12T17:20:01.433Z,2.75
2023-03-12T17:25:05.273Z,3.00
2023-03-12T17:30:09.499Z,3.50
2023-03-12T17:35:14.144Z,3.75
2023-03-12T17:40:17.006Z,2.50
2023-03-12T17:45:21.649Z,2.25
2023-03-12T17:50:25.943Z,2.75
2023-03-12T17:55:28.650Z,1.75
2023-03-12T18:00:31.514Z,2.00
2023-03-12T18:05:39.445Z,2.00
2023-03-12T18:10:42.349Z,1.00
2023-03-12T18:15:51.417Z,3.00
2023-03-12T18:20:55.871Z,1.50
2023-03-12T18:25:58.590Z,2.00
2023-03-12T18:31:01.404Z,1.75
2023-03-12T18:36:06.370Z,1.00
2023-03-12T18:41:12.257Z,2.00
2023-03-12T18:46:15.024Z,1.75
2023-03-12T18:51:19.098Z,1.75
2023-03-12T18:56:21.779Z,2.25
2023-03-12T19:01:24.583Z,2.00
2023-03-12T19:06:35.028Z,2.50
2023-03-12T19:11:43.751Z,1.00
2023-03-12T19:16:46.471Z,2.00
2023-03-12T19:21:50.641Z,2.00
2023-03-12T19:26:53.332Z,1.00
2023-03-12T19:31:56.084Z,1.25
2023-03-12T19:37:00.200Z,1.00
2023-03-12T19:42:03.078Z,1.00
2023-03-12T19:47:06.998Z,0.00
2023-03-12T19:52:11.313Z,1.00
2023-03-12T19:57:14.066Z,1.00
2023-03-12T20:02:17.044Z,1.00
2023-03-12T20:07:21.326Z,1.75
2023-03-12T20:12:24.562Z,1.00
2023-03-12T20:17:27.848Z,1.00
2023-03-12T20:22:32.767Z,2.00
2023-03-12T20:27:35.508Z,1.50
2023-03-12T20:32:38.270Z,1.00
2023-03-12T20:37:42.423Z,1.00
2023-03-12T20:42:45.340Z,1.75
2023-03-12T20:47:48.082Z,0.75
2023-03-12T20:52:52.427Z,2.00
2023-03-12T20:57:55.244Z,1.25
2023-03-12T21:02:57.939Z,0.50
2023-03-12T21:08:02.025Z,1.50
2023-03-12T21:13:05.967Z,1.75
2023-03-12T21:18:08.677Z,1.50
2023-03-12T21:23:13.111Z,1.50
2023-03-12T21:28:16.171Z,1.00
2023-03-12T21:33:19.220Z,0.75
2023-03-12T21:38:23.453Z,1.50
2023-03-12T21:43:30.074Z,1.00
2023-03-12T21:48:32.866Z,1.00
2023-03-12T21:53:37.756Z,1.00
2023-03-12T21:58:40.645Z,1.25
2023-03-12T22:03:44.712Z,0.75
2023-03-12T22:08:49.108Z,1.00
2023-03-12T22:13:51.815Z,1.25
2023-03-12T22:18:54.523Z,2.00
2023-03-12T22:23:58.833Z,1.25
2023-03-12T22:29:02.121Z,0.00
2023-03-12T22:34:04.845Z,0.75
2023-03-12T22:39:08.980Z,0.75
2023-03-12T22:44:11.726Z,1.50
2023-03-12T22:49:16.215Z,1.00
2023-03-12T22:54:20.652Z,0.00
2023-03-12T22:59:23.397Z,0.75
2023-03-12T23:04:26.271Z,1.50
2023-03-12T23:09:30.609Z,1.00
2023-03-12T23:14:34.490Z,0.50
2023-03-12T23:19:37.257Z,1.75
2023-03-12T23:24:41.431Z,1.00
2023-03-12T23:29:44.072Z,1.00
2023-03-12T23:34:46.743Z,1.25
2023-03-12T23:39:54.820Z,1.00
2023-03-12T23:44:57.760Z,0.00
2023-03-12T23:50:00.446Z,0.50
2023-03-12T23:55:04.980Z,0.25
